This is the latest recevied weather packets stored in our database for station/object KQ4JKJ. If no packets are shown the sender has not sent any weather packets the latest 10 day(s).
| Time | Temp. | Humidity | Pressure | Rain* | Wind** | Luminosity | Snow |
|---|---|---|---|---|---|---|---|
| 1778075992 | 27.78° C | 77% | 1011.5 hPa | 0 mm | - | 377 W/m² | - |
| 1778075689 | 27.78° C | 78% | 1011.8 hPa | 0 mm | - | 376 W/m² | - |
| 1778075385 | 28.33° C | 77% | 1011.5 hPa | 0 mm | - | 379 W/m² | - |
| 1778075081 | 27.78° C | 79% | 1011.6 hPa | 0 mm | - | 427 W/m² | - |
| 1778074778 | 27.78° C | 79% | 1011.5 hPa | 0 mm | - | 294 W/m² | - |
| 1778074475 | 27.78° C | 79% | 1011.5 hPa | 0 mm | - | 337 W/m² | - |
| 1778074172 | 27.22° C | 80% | 1011.5 hPa | 0 mm | - | 332 W/m² | - |
| 1778073869 | 26.67° C | 82% | 1011.4 hPa | 0 mm | - | 297 W/m² | - |
| 1778073567 | 26.67° C | 81% | 1011.3 hPa | 0 mm | - | 224 W/m² | - |
| 1778073263 | 26.67° C | 81% | 1011.3 hPa | 0 mm | - | 239 W/m² | - |
| 1778072960 | 26.67° C | 82% | 1011.3 hPa | 0 mm | - | 241 W/m² | - |
| 1778072656 | 26.11° C | 83% | 1011.2 hPa | 0 mm | - | 237 W/m² | - |
| 1778072355 | 26.67° C | 81% | 1011.1 hPa | 0 mm | - | 224 W/m² | - |
| 1778072053 | 26.67° C | 81% | 1011.3 hPa | 0 mm | - | 233 W/m² | - |
| 1778071751 | 26.67° C | 81% | 1011.1 hPa | 0 mm | - | 216 W/m² | - |
| 1778071448 | 26.67° C | 82% | 1011.2 hPa | 0 mm | - | 205 W/m² | - |
| 1778071145 | 26.67° C | 82% | 1011 hPa | 0 mm | - | 201 W/m² | - |
| 1778070843 | 26.67° C | 82% | 1011.4 hPa | 0 mm | - | 234 W/m² | - |
| 1778070541 | 26.11° C | 82% | 1011.2 hPa | 0 mm | - | 210 W/m² | - |
| 1778070237 | 26.11° C | 83% | 1011.1 hPa | 0 mm | - | 190 W/m² | - |
| 1778069935 | 25.56° C | 85% | 1011.1 hPa | 0 mm | - | 202 W/m² | - |
| 1778069632 | 25° C | 88% | 1011.1 hPa | 0 mm | - | 190 W/m² | - |
| 1778069329 | 23.89° C | 91% | 1010.9 hPa | 0 mm | - | 174 W/m² | - |
| 1778069027 | 23.33° C | 94% | 1011.1 hPa | 0 mm | - | 137 W/m² | - |
| 1778068724 | 22.78° C | 96% | 1011.1 hPa | 0 mm | - | 96 W/m² | - |
* Rain latest hour (hover to see other rain measurements)
** Current wind speed in m/s (hover to see current wind gust speed)